sensor_id;sensor_type;location;lat;lon;timestamp;P1;durP1;ratioP1;P2;durP2;ratioP2
10517;SDS011;5307;42.548;22.968;2023-04-15T00:01:50;7.07;;;3.67;;
10517;SDS011;5307;42.548;22.968;2023-04-15T00:04:17;7.60;;;4.00;;
10517;SDS011;5307;42.548;22.968;2023-04-15T00:06:48;8.18;;;4.65;;
10517;SDS011;5307;42.548;22.968;2023-04-15T00:09:17;12.43;;;4.65;;
10517;SDS011;5307;42.548;22.968;2023-04-15T00:11:44;9.75;;;4.18;;
10517;SDS011;5307;42.548;22.968;2023-04-15T00:14:11;8.68;;;4.63;;
10517;SDS011;5307;42.548;22.968;2023-04-15T00:16:38;9.82;;;5.05;;
10517;SDS011;5307;42.548;22.968;2023-04-15T00:19:06;8.15;;;4.60;;
10517;SDS011;5307;42.548;22.968;2023-04-15T00:21:33;5.65;;;4.30;;
10517;SDS011;5307;42.548;22.968;2023-04-15T00:24:00;8.70;;;4.55;;
10517;SDS011;5307;42.548;22.968;2023-04-15T00:26:27;7.55;;;4.88;;
10517;SDS011;5307;42.548;22.968;2023-04-15T00:28:54;9.48;;;5.80;;
10517;SDS011;5307;42.548;22.968;2023-04-15T00:31:21;8.07;;;4.53;;
10517;SDS011;5307;42.548;22.968;2023-04-15T00:33:48;7.40;;;5.10;;
10517;SDS011;5307;42.548;22.968;2023-04-15T00:36:16;7.25;;;4.75;;
10517;SDS011;5307;42.548;22.968;2023-04-15T00:38:43;11.95;;;5.55;;
10517;SDS011;5307;42.548;22.968;2023-04-15T00:41:10;11.95;;;5.47;;
10517;SDS011;5307;42.548;22.968;2023-04-15T00:43:37;10.07;;;5.07;;
10517;SDS011;5307;42.548;22.968;2023-04-15T00:46:04;9.60;;;5.40;;
10517;SDS011;5307;42.548;22.968;2023-04-15T00:48:32;11.70;;;5.38;;
10517;SDS011;5307;42.548;22.968;2023-04-15T00:50:59;12.48;;;4.85;;
10517;SDS011;5307;42.548;22.968;2023-04-15T00:53:27;8.60;;;4.38;;
10517;SDS011;5307;42.548;22.968;2023-04-15T00:55:54;8.38;;;4.43;;
10517;SDS011;5307;42.548;22.968;2023-04-15T00:58:21;7.32;;;4.10;;
10517;SDS011;5307;42.548;22.968;2023-04-15T01:00:49;9.90;;;4.30;;
10517;SDS011;5307;42.548;22.968;2023-04-15T01:03:18;7.53;;;4.18;;
10517;SDS011;5307;42.548;22.968;2023-04-15T01:05:45;8.65;;;4.30;;
10517;SDS011;5307;42.548;22.968;2023-04-15T01:08:12;9.75;;;4.60;;
10517;SDS011;5307;42.548;22.968;2023-04-15T01:10:40;7.57;;;4.25;;
10517;SDS011;5307;42.548;22.968;2023-04-15T01:13:08;12.20;;;4.30;;
10517;SDS011;5307;42.548;22.968;2023-04-15T01:15:34;8.07;;;4.40;;
10517;SDS011;5307;42.548;22.968;2023-04-15T01:18:02;10.15;;;4.97;;
10517;SDS011;5307;42.548;22.968;2023-04-15T01:20:29;11.57;;;6.90;;
10517;SDS011;5307;42.548;22.968;2023-04-15T01:22:56;15.10;;;9.00;;
10517;SDS011;5307;42.548;22.968;2023-04-15T01:25:28;14.98;;;9.13;;
10517;SDS011;5307;42.548;22.968;2023-04-15T01:27:57;19.58;;;10.60;;
10517;SDS011;5307;42.548;22.968;2023-04-15T01:30:24;18.80;;;10.15;;
10517;SDS011;5307;42.548;22.968;2023-04-15T01:32:52;11.65;;;6.72;;
10517;SDS011;5307;42.548;22.968;2023-04-15T01:35:19;10.77;;;5.78;;
10517;SDS011;5307;42.548;22.968;2023-04-15T01:37:46;11.27;;;6.13;;
10517;SDS011;5307;42.548;22.968;2023-04-15T01:40:14;16.38;;;5.45;;
10517;SDS011;5307;42.548;22.968;2023-04-15T01:42:45;8.55;;;5.60;;
10517;SDS011;5307;42.548;22.968;2023-04-15T01:45:24;9.25;;;4.80;;
10517;SDS011;5307;42.548;22.968;2023-04-15T01:47:51;8.48;;;5.57;;
10517;SDS011;5307;42.548;22.968;2023-04-15T01:50:18;7.60;;;5.65;;
10517;SDS011;5307;42.548;22.968;2023-04-15T01:52:45;10.65;;;5.43;;
10517;SDS011;5307;42.548;22.968;2023-04-15T01:55:12;11.98;;;6.68;;
10517;SDS011;5307;42.548;22.968;2023-04-15T01:57:39;12.77;;;6.78;;
10517;SDS011;5307;42.548;22.968;2023-04-15T02:00:08;12.68;;;6.53;;
10517;SDS011;5307;42.548;22.968;2023-04-15T02:02:35;9.20;;;5.70;;
10517;SDS011;5307;42.548;22.968;2023-04-15T02:05:03;8.27;;;5.88;;
10517;SDS011;5307;42.548;22.968;2023-04-15T02:07:30;10.82;;;6.97;;
10517;SDS011;5307;42.548;22.968;2023-04-15T02:09:57;14.80;;;7.28;;
10517;SDS011;5307;42.548;22.968;2023-04-15T02:12:25;16.27;;;7.55;;
10517;SDS011;5307;42.548;22.968;2023-04-15T02:14:52;12.52;;;6.85;;
10517;SDS011;5307;42.548;22.968;2023-04-15T02:17:20;12.85;;;7.53;;
10517;SDS011;5307;42.548;22.968;2023-04-15T02:19:47;13.50;;;7.30;;
10517;SDS011;5307;42.548;22.968;2023-04-15T02:22:13;11.48;;;7.57;;
10517;SDS011;5307;42.548;22.968;2023-04-15T02:24:42;9.05;;;6.10;;
10517;SDS011;5307;42.548;22.968;2023-04-15T02:27:10;11.77;;;6.78;;
10517;SDS011;5307;42.548;22.968;2023-04-15T02:29:42;11.82;;;4.88;;
10517;SDS011;5307;42.548;22.968;2023-04-15T02:32:10;5.88;;;4.25;;
10517;SDS011;5307;42.548;22.968;2023-04-15T02:34:39;8.27;;;4.30;;
10517;SDS011;5307;42.548;22.968;2023-04-15T02:37:07;5.03;;;3.42;;
10517;SDS011;5307;42.548;22.968;2023-04-15T02:39:34;5.55;;;2.80;;
10517;SDS011;5307;42.548;22.968;2023-04-15T02:42:00;4.32;;;2.90;;
10517;SDS011;5307;42.548;22.968;2023-04-15T02:44:27;7.30;;;2.92;;
10517;SDS011;5307;42.548;22.968;2023-04-15T02:46:56;7.63;;;2.55;;
10517;SDS011;5307;42.548;22.968;2023-04-15T02:49:23;6.15;;;3.63;;
10517;SDS011;5307;42.548;22.968;2023-04-15T02:51:51;6.90;;;2.92;;
10517;SDS011;5307;42.548;22.968;2023-04-15T02:54:19;5.07;;;2.75;;
10517;SDS011;5307;42.548;22.968;2023-04-15T02:56:47;4.13;;;3.10;;
10517;SDS011;5307;42.548;22.968;2023-04-15T02:59:15;7.07;;;3.25;;
10517;SDS011;5307;42.548;22.968;2023-04-15T03:01:42;7.10;;;3.80;;
10517;SDS011;5307;42.548;22.968;2023-04-15T03:04:08;8.63;;;3.90;;
10517;SDS011;5307;42.548;22.968;2023-04-15T03:06:35;5.80;;;3.35;;
10517;SDS011;5307;42.548;22.968;2023-04-15T03:09:03;8.90;;;3.28;;
10517;SDS011;5307;42.548;22.968;2023-04-15T03:11:31;7.60;;;3.67;;
10517;SDS011;5307;42.548;22.968;2023-04-15T03:13:58;8.32;;;3.47;;
10517;SDS011;5307;42.548;22.968;2023-04-15T03:16:25;7.13;;;3.95;;
10517;SDS011;5307;42.548;22.968;2023-04-15T03:18:51;8.60;;;3.55;;
10517;SDS011;5307;42.548;22.968;2023-04-15T03:21:18;7.25;;;3.08;;
10517;SDS011;5307;42.548;22.968;2023-04-15T03:23:45;9.75;;;3.55;;
10517;SDS011;5307;42.548;22.968;2023-04-15T03:26:24;5.32;;;3.40;;
10517;SDS011;5307;42.548;22.968;2023-04-15T03:28:52;5.60;;;3.08;;
10517;SDS011;5307;42.548;22.968;2023-04-15T03:31:19;5.97;;;2.30;;
10517;SDS011;5307;42.548;22.968;2023-04-15T03:33:47;5.85;;;2.45;;
10517;SDS011;5307;42.548;22.968;2023-04-15T03:36:14;4.60;;;2.45;;
10517;SDS011;5307;42.548;22.968;2023-04-15T03:38:41;4.45;;;3.10;;
10517;SDS011;5307;42.548;22.968;2023-04-15T03:41:09;3.97;;;2.45;;
10517;SDS011;5307;42.548;22.968;2023-04-15T03:43:37;4.65;;;2.78;;
10517;SDS011;5307;42.548;22.968;2023-04-15T03:46:04;6.68;;;2.97;;
10517;SDS011;5307;42.548;22.968;2023-04-15T03:48:31;15.60;;;5.25;;
10517;SDS011;5307;42.548;22.968;2023-04-15T03:50:58;8.10;;;4.50;;
10517;SDS011;5307;42.548;22.968;2023-04-15T03:53:24;23.35;;;8.80;;
10517;SDS011;5307;42.548;22.968;2023-04-15T03:55:51;20.33;;;8.35;;
10517;SDS011;5307;42.548;22.968;2023-04-15T03:58:18;8.98;;;3.85;;
10517;SDS011;5307;42.548;22.968;2023-04-15T04:00:46;12.98;;;4.30;;
10517;SDS011;5307;42.548;22.968;2023-04-15T04:03:13;9.88;;;3.80;;
10517;SDS011;5307;42.548;22.968;2023-04-15T04:05:40;4.95;;;2.90;;
10517;SDS011;5307;42.548;22.968;2023-04-15T04:08:08;7.38;;;2.92;;
10517;SDS011;5307;42.548;22.968;2023-04-15T04:10:38;12.32;;;4.35;;
10517;SDS011;5307;42.548;22.968;2023-04-15T04:13:04;10.63;;;4.97;;
10517;SDS011;5307;42.548;22.968;2023-04-15T04:15:31;15.38;;;8.65;;
10517;SDS011;5307;42.548;22.968;2023-04-15T04:18:00;10.40;;;6.60;;
10517;SDS011;5307;42.548;22.968;2023-04-15T04:20:27;13.18;;;6.70;;
10517;SDS011;5307;42.548;22.968;2023-04-15T04:22:56;16.85;;;10.50;;
10517;SDS011;5307;42.548;22.968;2023-04-15T04:25:23;19.85;;;10.63;;
10517;SDS011;5307;42.548;22.968;2023-04-15T04:27:50;15.85;;;10.73;;
10517;SDS011;5307;42.548;22.968;2023-04-15T04:30:18;18.25;;;10.63;;
10517;SDS011;5307;42.548;22.968;2023-04-15T04:32:45;16.55;;;10.07;;
10517;SDS011;5307;42.548;22.968;2023-04-15T04:35:13;20.55;;;11.05;;
10517;SDS011;5307;42.548;22.968;2023-04-15T04:37:40;17.13;;;9.30;;
10517;SDS011;5307;42.548;22.968;2023-04-15T04:40:14;21.25;;;12.48;;
10517;SDS011;5307;42.548;22.968;2023-04-15T04:42:41;14.93;;;9.27;;
10517;SDS011;5307;42.548;22.968;2023-04-15T04:45:08;34.65;;;19.17;;
10517;SDS011;5307;42.548;22.968;2023-04-15T04:47:35;27.98;;;16.30;;
10517;SDS011;5307;42.548;22.968;2023-04-15T04:50:02;32.33;;;19.48;;
10517;SDS011;5307;42.548;22.968;2023-04-15T04:52:32;23.98;;;14.77;;
10517;SDS011;5307;42.548;22.968;2023-04-15T04:54:59;22.42;;;12.13;;
10517;SDS011;5307;42.548;22.968;2023-04-15T04:57:25;17.05;;;10.32;;
10517;SDS011;5307;42.548;22.968;2023-04-15T04:59:52;16.80;;;9.90;;
10517;SDS011;5307;42.548;22.968;2023-04-15T05:02:19;17.75;;;10.07;;
10517;SDS011;5307;42.548;22.968;2023-04-15T05:04:46;15.57;;;8.15;;
10517;SDS011;5307;42.548;22.968;2023-04-15T05:07:14;15.27;;;8.82;;
10517;SDS011;5307;42.548;22.968;2023-04-15T05:09:42;19.70;;;11.93;;
10517;SDS011;5307;42.548;22.968;2023-04-15T05:12:09;23.73;;;13.13;;
10517;SDS011;5307;42.548;22.968;2023-04-15T05:14:39;22.25;;;11.18;;
10517;SDS011;5307;42.548;22.968;2023-04-15T05:17:06;15.38;;;10.07;;
10517;SDS011;5307;42.548;22.968;2023-04-15T05:19:32;23.70;;;11.75;;
10517;SDS011;5307;42.548;22.968;2023-04-15T05:21:59;23.63;;;12.30;;
10517;SDS011;5307;42.548;22.968;2023-04-15T05:24:27;23.70;;;11.52;;
10517;SDS011;5307;42.548;22.968;2023-04-15T05:26:55;21.73;;;11.30;;
10517;SDS011;5307;42.548;22.968;2023-04-15T05:29:22;21.27;;;13.95;;
10517;SDS011;5307;42.548;22.968;2023-04-15T05:31:48;28.25;;;16.90;;
10517;SDS011;5307;42.548;22.968;2023-04-15T05:34:16;26.52;;;14.15;;
10517;SDS011;5307;42.548;22.968;2023-04-15T05:36:42;16.10;;;10.57;;
10517;SDS011;5307;42.548;22.968;2023-04-15T05:39:09;16.70;;;10.15;;
10517;SDS011;5307;42.548;22.968;2023-04-15T05:41:36;14.82;;;9.40;;
10517;SDS011;5307;42.548;22.968;2023-04-15T05:44:04;15.77;;;9.65;;
10517;SDS011;5307;42.548;22.968;2023-04-15T05:46:31;18.38;;;9.02;;
10517;SDS011;5307;42.548;22.968;2023-04-15T05:48:58;12.40;;;8.18;;
10517;SDS011;5307;42.548;22.968;2023-04-15T05:51:24;7.70;;;5.28;;
10517;SDS011;5307;42.548;22.968;2023-04-15T05:53:52;8.77;;;5.32;;
10517;SDS011;5307;42.548;22.968;2023-04-15T05:56:18;11.05;;;5.90;;
10517;SDS011;5307;42.548;22.968;2023-04-15T05:58:45;15.68;;;8.00;;
10517;SDS011;5307;42.548;22.968;2023-04-15T06:01:13;17.70;;;9.63;;
10517;SDS011;5307;42.548;22.968;2023-04-15T06:03:41;14.77;;;8.20;;
10517;SDS011;5307;42.548;22.968;2023-04-15T06:06:09;12.10;;;6.90;;
10517;SDS011;5307;42.548;22.968;2023-04-15T06:08:36;8.63;;;5.85;;
10517;SDS011;5307;42.548;22.968;2023-04-15T06:11:02;15.55;;;7.97;;
10517;SDS011;5307;42.548;22.968;2023-04-15T06:13:30;13.68;;;7.50;;
10517;SDS011;5307;42.548;22.968;2023-04-15T06:15:56;10.93;;;7.35;;
10517;SDS011;5307;42.548;22.968;2023-04-15T06:18:26;12.23;;;7.20;;
10517;SDS011;5307;42.548;22.968;2023-04-15T06:20:53;17.10;;;7.38;;
10517;SDS011;5307;42.548;22.968;2023-04-15T06:23:20;12.15;;;7.72;;
10517;SDS011;5307;42.548;22.968;2023-04-15T06:25:47;16.25;;;7.32;;
10517;SDS011;5307;42.548;22.968;2023-04-15T06:28:13;9.95;;;7.15;;
10517;SDS011;5307;42.548;22.968;2023-04-15T06:30:40;11.90;;;7.60;;
10517;SDS011;5307;42.548;22.968;2023-04-15T06:36:50;14.30;;;6.45;;
10517;SDS011;5307;42.548;22.968;2023-04-15T06:39:18;9.80;;;6.43;;
10517;SDS011;5307;42.548;22.968;2023-04-15T06:41:45;16.27;;;6.32;;
10517;SDS011;5307;42.548;22.968;2023-04-15T06:44:12;6.95;;;3.78;;
10517;SDS011;5307;42.548;22.968;2023-04-15T06:46:39;7.50;;;3.00;;
10517;SDS011;5307;42.548;22.968;2023-04-15T06:49:06;6.20;;;3.38;;
10517;SDS011;5307;42.548;22.968;2023-04-15T06:51:33;9.23;;;3.17;;
10517;SDS011;5307;42.548;22.968;2023-04-15T06:54:02;6.80;;;3.88;;
10517;SDS011;5307;42.548;22.968;2023-04-15T06:56:30;8.57;;;3.80;;
10517;SDS011;5307;42.548;22.968;2023-04-15T06:58:57;9.35;;;3.85;;
10517;SDS011;5307;42.548;22.968;2023-04-15T07:01:23;8.88;;;4.28;;
10517;SDS011;5307;42.548;22.968;2023-04-15T07:03:51;7.55;;;3.85;;
10517;SDS011;5307;42.548;22.968;2023-04-15T07:06:17;8.40;;;2.88;;
10517;SDS011;5307;42.548;22.968;2023-04-15T07:08:46;13.48;;;4.07;;
10517;SDS011;5307;42.548;22.968;2023-04-15T07:11:14;9.77;;;2.90;;
10517;SDS011;5307;42.548;22.968;2023-04-15T07:13:41;7.75;;;2.70;;
10517;SDS011;5307;42.548;22.968;2023-04-15T07:16:08;6.00;;;2.33;;
10517;SDS011;5307;42.548;22.968;2023-04-15T07:18:35;9.40;;;2.65;;
10517;SDS011;5307;42.548;22.968;2023-04-15T07:21:02;5.50;;;2.53;;
10517;SDS011;5307;42.548;22.968;2023-04-15T07:23:29;4.18;;;1.85;;
10517;SDS011;5307;42.548;22.968;2023-04-15T07:25:55;6.00;;;2.72;;
10517;SDS011;5307;42.548;22.968;2023-04-15T07:28:24;4.70;;;2.40;;
10517;SDS011;5307;42.548;22.968;2023-04-15T07:30:51;4.97;;;2.30;;
10517;SDS011;5307;42.548;22.968;2023-04-15T07:33:17;4.72;;;1.92;;
10517;SDS011;5307;42.548;22.968;2023-04-15T07:35:44;4.95;;;1.50;;
10517;SDS011;5307;42.548;22.968;2023-04-15T07:38:11;5.93;;;1.70;;
10517;SDS011;5307;42.548;22.968;2023-04-15T07:40:38;4.50;;;1.65;;
10517;SDS011;5307;42.548;22.968;2023-04-15T07:43:06;2.47;;;1.58;;
10517;SDS011;5307;42.548;22.968;2023-04-15T07:45:35;3.33;;;1.42;;
10517;SDS011;5307;42.548;22.968;2023-04-15T07:48:02;4.65;;;1.95;;
10517;SDS011;5307;42.548;22.968;2023-04-15T07:50:31;6.97;;;2.17;;
10517;SDS011;5307;42.548;22.968;2023-04-15T07:52:57;3.95;;;2.15;;
10517;SDS011;5307;42.548;22.968;2023-04-15T07:55:24;4.40;;;1.70;;
10517;SDS011;5307;42.548;22.968;2023-04-15T07:57:51;3.78;;;2.17;;
10517;SDS011;5307;42.548;22.968;2023-04-15T08:00:18;3.80;;;1.90;;
10517;SDS011;5307;42.548;22.968;2023-04-15T08:02:46;5.53;;;1.77;;
10517;SDS011;5307;42.548;22.968;2023-04-15T08:05:13;4.22;;;1.70;;
10517;SDS011;5307;42.548;22.968;2023-04-15T08:07:40;7.05;;;2.05;;
10517;SDS011;5307;42.548;22.968;2023-04-15T08:10:07;4.22;;;1.60;;
10517;SDS011;5307;42.548;22.968;2023-04-15T08:12:34;3.20;;;1.50;;
10517;SDS011;5307;42.548;22.968;2023-04-15T08:15:02;4.97;;;1.60;;
10517;SDS011;5307;42.548;22.968;2023-04-15T08:17:29;1.90;;;0.93;;
10517;SDS011;5307;42.548;22.968;2023-04-15T08:19:57;2.90;;;1.38;;
10517;SDS011;5307;42.548;22.968;2023-04-15T08:22:24;5.78;;;1.42;;
10517;SDS011;5307;42.548;22.968;2023-04-15T08:24:51;3.80;;;1.05;;
10517;SDS011;5307;42.548;22.968;2023-04-15T08:27:18;5.25;;;1.70;;
10517;SDS011;5307;42.548;22.968;2023-04-15T08:29:45;3.20;;;2.03;;
10517;SDS011;5307;42.548;22.968;2023-04-15T08:32:12;2.58;;;1.42;;
10517;SDS011;5307;42.548;22.968;2023-04-15T08:34:39;2.25;;;1.25;;
10517;SDS011;5307;42.548;22.968;2023-04-15T08:37:07;3.55;;;1.30;;
10517;SDS011;5307;42.548;22.968;2023-04-15T08:39:34;5.28;;;1.20;;
10517;SDS011;5307;42.548;22.968;2023-04-15T08:42:01;3.05;;;1.20;;
10517;SDS011;5307;42.548;22.968;2023-04-15T08:44:32;3.10;;;1.15;;
10517;SDS011;5307;42.548;22.968;2023-04-15T08:47:01;2.88;;;1.30;;
10517;SDS011;5307;42.548;22.968;2023-04-15T08:49:30;6.22;;;1.67;;
10517;SDS011;5307;42.548;22.968;2023-04-15T08:51:58;2.90;;;1.30;;
10517;SDS011;5307;42.548;22.968;2023-04-15T08:54:27;1.83;;;1.13;;
10517;SDS011;5307;42.548;22.968;2023-04-15T08:56:54;2.58;;;1.27;;
10517;SDS011;5307;42.548;22.968;2023-04-15T08:59:23;3.90;;;1.27;;
10517;SDS011;5307;42.548;22.968;2023-04-15T09:01:50;4.00;;;1.20;;
10517;SDS011;5307;42.548;22.968;2023-04-15T09:04:19;4.40;;;0.95;;
10517;SDS011;5307;42.548;22.968;2023-04-15T09:06:46;4.63;;;1.20;;
10517;SDS011;5307;42.548;22.968;2023-04-15T09:09:13;3.90;;;1.52;;
10517;SDS011;5307;42.548;22.968;2023-04-15T09:11:41;4.00;;;1.88;;
10517;SDS011;5307;42.548;22.968;2023-04-15T09:14:08;4.40;;;1.05;;
10517;SDS011;5307;42.548;22.968;2023-04-15T09:19:23;8.10;;;1.70;;
10517;SDS011;5307;42.548;22.968;2023-04-15T09:21:50;3.10;;;1.50;;
10517;SDS011;5307;42.548;22.968;2023-04-15T09:24:18;2.33;;;1.10;;
10517;SDS011;5307;42.548;22.968;2023-04-15T09:26:47;1.58;;;1.00;;
10517;SDS011;5307;42.548;22.968;2023-04-15T09:29:17;4.47;;;1.00;;
10517;SDS011;5307;42.548;22.968;2023-04-15T09:31:44;2.33;;;0.85;;
10517;SDS011;5307;42.548;22.968;2023-04-15T09:34:11;2.10;;;1.00;;
10517;SDS011;5307;42.548;22.968;2023-04-15T09:36:40;1.48;;;1.05;;
10517;SDS011;5307;42.548;22.968;2023-04-15T09:39:18;5.45;;;1.77;;
10517;SDS011;5307;42.548;22.968;2023-04-15T09:41:47;6.00;;;1.38;;
10517;SDS011;5307;42.548;22.968;2023-04-15T09:44:31;2.40;;;1.10;;
10517;SDS011;5307;42.548;22.968;2023-04-15T09:46:58;3.33;;;2.10;;
10517;SDS011;5307;42.548;22.968;2023-04-15T09:49:26;8.85;;;1.20;;
10517;SDS011;5307;42.548;22.968;2023-04-15T09:51:56;7.57;;;1.38;;
10517;SDS011;5307;42.548;22.968;2023-04-15T09:54:23;5.25;;;1.20;;
10517;SDS011;5307;42.548;22.968;2023-04-15T09:56:52;2.95;;;0.85;;
10517;SDS011;5307;42.548;22.968;2023-04-15T09:59:19;3.70;;;0.75;;
10517;SDS011;5307;42.548;22.968;2023-04-15T10:01:45;1.55;;;0.93;;
10517;SDS011;5307;42.548;22.968;2023-04-15T10:04:12;4.18;;;1.88;;
10517;SDS011;5307;42.548;22.968;2023-04-15T10:06:40;1.60;;;1.15;;
10517;SDS011;5307;42.548;22.968;2023-04-15T10:09:07;4.00;;;1.70;;
10517;SDS011;5307;42.548;22.968;2023-04-15T10:11:34;2.13;;;1.17;;
10517;SDS011;5307;42.548;22.968;2023-04-15T10:14:03;3.60;;;1.45;;
10517;SDS011;5307;42.548;22.968;2023-04-15T10:16:32;7.50;;;1.98;;
10517;SDS011;5307;42.548;22.968;2023-04-15T10:19:01;2.75;;;1.67;;
10517;SDS011;5307;42.548;22.968;2023-04-15T10:21:32;3.88;;;1.35;;
10517;SDS011;5307;42.548;22.968;2023-04-15T10:23:59;4.40;;;2.28;;
10517;SDS011;5307;42.548;22.968;2023-04-15T10:26:29;5.10;;;1.70;;
10517;SDS011;5307;42.548;22.968;2023-04-15T10:28:56;1.25;;;0.77;;
10517;SDS011;5307;42.548;22.968;2023-04-15T10:31:26;2.15;;;0.93;;
10517;SDS011;5307;42.548;22.968;2023-04-15T10:33:54;4.93;;;1.20;;
10517;SDS011;5307;42.548;22.968;2023-04-15T10:36:23;1.98;;;0.98;;
10517;SDS011;5307;42.548;22.968;2023-04-15T10:38:50;3.92;;;1.30;;
10517;SDS011;5307;42.548;22.968;2023-04-15T10:41:18;2.05;;;1.00;;
10517;SDS011;5307;42.548;22.968;2023-04-15T10:43:49;2.30;;;0.90;;
10517;SDS011;5307;42.548;22.968;2023-04-15T10:46:20;3.20;;;1.42;;
10517;SDS011;5307;42.548;22.968;2023-04-15T10:48:51;3.38;;;1.08;;
10517;SDS011;5307;42.548;22.968;2023-04-15T10:51:25;2.47;;;1.10;;
10517;SDS011;5307;42.548;22.968;2023-04-15T10:53:55;1.25;;;0.80;;
10517;SDS011;5307;42.548;22.968;2023-04-15T10:56:23;2.63;;;0.90;;
10517;SDS011;5307;42.548;22.968;2023-04-15T10:58:50;1.60;;;0.70;;
10517;SDS011;5307;42.548;22.968;2023-04-15T11:01:18;1.88;;;1.25;;
10517;SDS011;5307;42.548;22.968;2023-04-15T11:03:46;2.55;;;1.10;;
10517;SDS011;5307;42.548;22.968;2023-04-15T11:06:16;2.00;;;0.77;;
10517;SDS011;5307;42.548;22.968;2023-04-15T11:08:52;3.15;;;1.00;;
10517;SDS011;5307;42.548;22.968;2023-04-15T11:11:22;3.60;;;1.08;;
10517;SDS011;5307;42.548;22.968;2023-04-15T11:14:13;1.67;;;0.95;;
10517;SDS011;5307;42.548;22.968;2023-04-15T11:16:41;1.98;;;1.20;;
10517;SDS011;5307;42.548;22.968;2023-04-15T11:19:09;1.27;;;0.60;;
10517;SDS011;5307;42.548;22.968;2023-04-15T11:21:37;2.30;;;1.25;;
10517;SDS011;5307;42.548;22.968;2023-04-15T11:24:04;1.50;;;1.05;;
10517;SDS011;5307;42.548;22.968;2023-04-15T11:26:31;2.75;;;0.70;;
10517;SDS011;5307;42.548;22.968;2023-04-15T11:28:58;2.30;;;1.00;;
10517;SDS011;5307;42.548;22.968;2023-04-15T11:31:25;2.65;;;0.80;;
10517;SDS011;5307;42.548;22.968;2023-04-15T11:33:54;2.00;;;0.80;;
10517;SDS011;5307;42.548;22.968;2023-04-15T11:36:23;3.13;;;0.80;;
10517;SDS011;5307;42.548;22.968;2023-04-15T11:38:54;1.02;;;1.02;;
10517;SDS011;5307;42.548;22.968;2023-04-15T11:41:22;3.92;;;0.60;;
10517;SDS011;5307;42.548;22.968;2023-04-15T11:43:50;1.92;;;0.82;;
10517;SDS011;5307;42.548;22.968;2023-04-15T11:46:27;3.05;;;0.70;;
10517;SDS011;5307;42.548;22.968;2023-04-15T11:48:55;2.50;;;0.80;;
10517;SDS011;5307;42.548;22.968;2023-04-15T11:51:22;2.95;;;0.95;;
10517;SDS011;5307;42.548;22.968;2023-04-15T11:53:49;1.27;;;0.90;;
10517;SDS011;5307;42.548;22.968;2023-04-15T11:56:18;1.25;;;0.85;;
10517;SDS011;5307;42.548;22.968;2023-04-15T11:58:46;1.20;;;0.88;;
10517;SDS011;5307;42.548;22.968;2023-04-15T12:04:09;1.45;;;1.20;;
10517;SDS011;5307;42.548;22.968;2023-04-15T12:06:36;2.45;;;1.15;;
10517;SDS011;5307;42.548;22.968;2023-04-15T12:09:07;4.07;;;1.73;;
10517;SDS011;5307;42.548;22.968;2023-04-15T12:11:37;1.17;;;0.95;;
10517;SDS011;5307;42.548;22.968;2023-04-15T12:14:11;1.13;;;0.90;;
10517;SDS011;5307;42.548;22.968;2023-04-15T12:16:41;4.93;;;1.77;;
10517;SDS011;5307;42.548;22.968;2023-04-15T12:19:10;5.85;;;1.50;;
10517;SDS011;5307;42.548;22.968;2023-04-15T12:21:39;1.60;;;0.90;;
10517;SDS011;5307;42.548;22.968;2023-04-15T12:24:07;7.88;;;2.38;;
10517;SDS011;5307;42.548;22.968;2023-04-15T12:26:42;2.00;;;1.30;;
10517;SDS011;5307;42.548;22.968;2023-04-15T12:29:10;1.92;;;0.82;;
10517;SDS011;5307;42.548;22.968;2023-04-15T12:31:45;3.00;;;1.70;;
10517;SDS011;5307;42.548;22.968;2023-04-15T12:34:14;1.58;;;1.20;;
10517;SDS011;5307;42.548;22.968;2023-04-15T12:36:41;3.58;;;1.20;;
10517;SDS011;5307;42.548;22.968;2023-04-15T12:39:08;2.03;;;0.80;;
10517;SDS011;5307;42.548;22.968;2023-04-15T12:41:35;2.33;;;1.17;;
10517;SDS011;5307;42.548;22.968;2023-04-15T12:44:03;4.03;;;1.50;;
10517;SDS011;5307;42.548;22.968;2023-04-15T12:46:30;4.57;;;1.00;;
10517;SDS011;5307;42.548;22.968;2023-04-15T12:48:57;1.38;;;0.90;;
10517;SDS011;5307;42.548;22.968;2023-04-15T12:51:24;5.30;;;1.38;;
10517;SDS011;5307;42.548;22.968;2023-04-15T12:53:51;1.60;;;1.23;;
10517;SDS011;5307;42.548;22.968;2023-04-15T12:56:18;3.65;;;1.40;;
10517;SDS011;5307;42.548;22.968;2023-04-15T12:58:45;2.63;;;0.80;;
10517;SDS011;5307;42.548;22.968;2023-04-15T13:01:13;1.83;;;1.10;;
10517;SDS011;5307;42.548;22.968;2023-04-15T13:03:39;11.15;;;5.35;;
10517;SDS011;5307;42.548;22.968;2023-04-15T13:06:06;14.38;;;6.63;;
10517;SDS011;5307;42.548;22.968;2023-04-15T13:08:33;4.22;;;1.30;;
10517;SDS011;5307;42.548;22.968;2023-04-15T13:11:00;4.25;;;2.30;;
10517;SDS011;5307;42.548;22.968;2023-04-15T13:13:27;1.85;;;1.02;;
10517;SDS011;5307;42.548;22.968;2023-04-15T13:15:56;1.52;;;0.90;;
10517;SDS011;5307;42.548;22.968;2023-04-15T13:18:24;3.80;;;1.77;;
10517;SDS011;5307;42.548;22.968;2023-04-15T13:20:51;5.32;;;3.33;;
10517;SDS011;5307;42.548;22.968;2023-04-15T13:23:17;1.85;;;1.15;;
10517;SDS011;5307;42.548;22.968;2023-04-15T13:25:44;2.25;;;0.82;;
10517;SDS011;5307;42.548;22.968;2023-04-15T13:28:11;3.25;;;1.15;;
10517;SDS011;5307;42.548;22.968;2023-04-15T13:30:38;3.60;;;1.77;;
10517;SDS011;5307;42.548;22.968;2023-04-15T13:33:04;2.20;;;1.33;;
10517;SDS011;5307;42.548;22.968;2023-04-15T13:35:33;1.58;;;0.60;;
10517;SDS011;5307;42.548;22.968;2023-04-15T13:38:00;4.05;;;1.50;;
10517;SDS011;5307;42.548;22.968;2023-04-15T13:40:27;3.30;;;1.58;;
10517;SDS011;5307;42.548;22.968;2023-04-15T13:42:53;2.45;;;1.63;;
10517;SDS011;5307;42.548;22.968;2023-04-15T13:45:21;5.18;;;1.35;;
10517;SDS011;5307;42.548;22.968;2023-04-15T13:47:48;2.00;;;1.45;;
10517;SDS011;5307;42.548;22.968;2023-04-15T13:50:15;3.05;;;1.23;;
10517;SDS011;5307;42.548;22.968;2023-04-15T13:52:43;3.33;;;1.00;;
10517;SDS011;5307;42.548;22.968;2023-04-15T13:55:10;3.95;;;1.02;;
10517;SDS011;5307;42.548;22.968;2023-04-15T13:57:36;4.60;;;1.50;;
10517;SDS011;5307;42.548;22.968;2023-04-15T14:00:04;3.13;;;1.10;;
10517;SDS011;5307;42.548;22.968;2023-04-15T14:02:31;3.65;;;0.80;;
10517;SDS011;5307;42.548;22.968;2023-04-15T14:04:58;3.92;;;1.02;;
10517;SDS011;5307;42.548;22.968;2023-04-15T14:07:25;3.05;;;1.63;;
10517;SDS011;5307;42.548;22.968;2023-04-15T14:09:53;2.05;;;1.08;;
10517;SDS011;5307;42.548;22.968;2023-04-15T14:12:20;4.20;;;1.83;;
10517;SDS011;5307;42.548;22.968;2023-04-15T14:14:47;1.88;;;1.10;;
10517;SDS011;5307;42.548;22.968;2023-04-15T14:17:14;4.57;;;1.42;;
10517;SDS011;5307;42.548;22.968;2023-04-15T14:19:41;7.68;;;2.28;;
10517;SDS011;5307;42.548;22.968;2023-04-15T14:22:07;4.32;;;0.93;;
10517;SDS011;5307;42.548;22.968;2023-04-15T14:24:37;0.90;;;0.73;;
10517;SDS011;5307;42.548;22.968;2023-04-15T14:27:06;2.40;;;0.63;;
10517;SDS011;5307;42.548;22.968;2023-04-15T14:29:36;3.53;;;1.27;;
10517;SDS011;5307;42.548;22.968;2023-04-15T14:38:47;3.25;;;1.58;;
10517;SDS011;5307;42.548;22.968;2023-04-15T14:41:14;2.90;;;0.95;;
10517;SDS011;5307;42.548;22.968;2023-04-15T14:54:02;4.10;;;1.00;;
10517;SDS011;5307;42.548;22.968;2023-04-15T14:56:29;4.25;;;1.13;;
10517;SDS011;5307;42.548;22.968;2023-04-15T14:58:59;3.15;;;1.13;;
10517;SDS011;5307;42.548;22.968;2023-04-15T15:01:37;3.15;;;1.00;;
10517;SDS011;5307;42.548;22.968;2023-04-15T15:04:04;2.15;;;1.15;;
10517;SDS011;5307;42.548;22.968;2023-04-15T15:06:31;2.55;;;1.00;;
10517;SDS011;5307;42.548;22.968;2023-04-15T15:08:59;3.45;;;1.55;;
10517;SDS011;5307;42.548;22.968;2023-04-15T15:11:28;2.70;;;1.50;;
10517;SDS011;5307;42.548;22.968;2023-04-15T15:13:56;2.88;;;1.67;;